Time;durP1;ratioP1;P1;durP2;ratioP2;P2;SDS_P1;SDS_P2;PMS_P1;PMS_P2;Temp;Humidity;BMP_temperature;BMP_pressure;BME280_temperature;BME280_humidity;BME280_pressure;Samples;Min_cycle;Max_cycle;Signal;HPM_P1;HPM_P2
2021/12/16 00:04:43;;;;;;;15.00;7.73;;;9.10;99.90;;;;;;4953236;28;20417;-73
2021/12/16 00:07:06;;;;;;;19.40;8.40;;;9.10;99.90;;;;;;4971733;28;20525;-72
2021/12/16 00:10:21;;;;;;;13.37;9.50;;;9.10;99.90;;;;;;4971739;28;20460;-72
2021/12/16 00:29:06;;;;;;;11.10;7.17;;;9.10;99.90;;;;;;4972036;28;20430;-71
2021/12/16 00:29:22;;;;;;;14.63;9.20;;;9.10;99.90;;;;;;4972430;28;20823;-72
2021/12/16 00:34:37;;;;;;;15.07;7.10;;;9.20;99.90;;;;;;4970752;28;20416;-72
2021/12/16 00:37:03;;;;;;;14.87;6.80;;;9.10;99.90;;;;;;4971749;28;20926;-71
2021/12/16 00:39:32;;;;;;;15.97;6.57;;;9.10;99.90;;;;;;4971954;28;20570;-72
2021/12/16 00:42:05;;;;;;;16.83;8.37;;;9.10;99.90;;;;;;4974838;28;20190;-72
2021/12/16 00:49:42;;;;;;;18.60;8.73;;;9.10;99.90;;;;;;4976227;28;20535;-71
2021/12/16 00:55:06;;;;;;;13.30;7.60;;;9.00;99.90;;;;;;4976141;28;20401;-71
2021/12/16 00:57:32;;;;;;;13.07;6.73;;;9.10;99.90;;;;;;4976122;28;20748;-72
2021/12/16 01:00:00;;;;;;;17.93;8.93;;;9.10;99.90;;;;;;4977632;28;20419;-73
2021/12/16 01:02:47;;;;;;;23.50;9.23;;;9.10;99.90;;;;;;4978172;28;20265;-72
2021/12/16 01:35:48;;;;;;;12.97;7.43;;;8.60;99.90;;;;;;4974567;28;20440;-71
2021/12/16 01:46:29;;;;;;;9.20;6.60;;;8.50;99.90;;;;;;4974633;28;20440;-72
2021/12/16 01:52:45;;;;;;;13.67;6.17;;;8.50;99.90;;;;;;4974379;28;20429;-72
2021/12/16 01:54:52;;;;;;;17.43;8.30;;;8.50;99.90;;;;;;4973184;28;20421;-72
2021/12/16 01:57:31;;;;;;;13.93;7.10;;;8.50;99.90;;;;;;4974026;28;20908;-70
2021/12/16 02:00:07;;;;;;;11.47;6.00;;;8.40;99.90;;;;;;4974042;28;20425;-71
2021/12/16 02:02:48;;;;;;;9.83;7.10;;;8.50;99.90;;;;;;4973921;28;20751;-72
2021/12/16 02:05:39;;;;;;;10.67;6.57;;;8.50;99.90;;;;;;4974124;28;20410;-73
2021/12/16 02:10:41;;;;;;;21.03;8.33;;;8.60;99.90;;;;;;4973951;28;20465;-71
2021/12/16 02:13:41;;;;;;;11.03;6.40;;;8.60;99.90;;;;;;4973675;28;20421;-72
2021/12/16 02:30:03;;;;;;;7.90;4.90;;;8.70;99.90;;;;;;4973603;28;20537;-71
2021/12/16 02:32:44;;;;;;;8.33;4.27;;;8.60;99.90;;;;;;4973302;28;20504;-71
2021/12/16 02:35:30;;;;;;;9.40;4.57;;;8.60;99.90;;;;;;4973253;28;20405;-72
2021/12/16 02:37:58;;;;;;;9.57;6.07;;;8.60;99.90;;;;;;4973088;28;20458;-71
2021/12/16 02:40:23;;;;;;;10.90;5.97;;;8.60;99.90;;;;;;4971906;28;20778;-71
2021/12/16 02:43:20;;;;;;;7.03;4.47;;;8.60;99.90;;;;;;4973275;28;20422;-71
2021/12/16 02:48:36;;;;;;;11.20;4.07;;;8.60;99.90;;;;;;4973156;28;20419;-70
2021/12/16 02:51:06;;;;;;;6.97;4.33;;;8.60;99.90;;;;;;4973253;28;20442;-72
2021/12/16 02:53:34;;;;;;;7.10;4.10;;;8.70;99.90;;;;;;4972941;28;20406;-72
2021/12/16 02:56:00;;;;;;;5.67;3.63;;;8.70;99.90;;;;;;4972811;28;20410;-72
2021/12/16 02:58:26;;;;;;;8.17;4.50;;;8.60;99.90;;;;;;4972905;28;20410;-73
2021/12/16 03:01:00;;;;;;;7.77;4.23;;;8.70;99.90;;;;;;4973071;28;20517;-74
2021/12/16 03:03:26;;;;;;;6.30;3.50;;;8.60;99.90;;;;;;4972060;28;20215;-72
2021/12/16 03:05:52;;;;;;;6.47;4.03;;;8.60;99.90;;;;;;4972943;28;20492;-72
2021/12/16 03:08:18;;;;;;;5.90;3.73;;;8.60;99.90;;;;;;4972808;28;20166;-71
2021/12/16 03:11:14;;;;;;;6.87;3.80;;;8.70;99.90;;;;;;4972544;28;20259;-72
2021/12/16 03:14:01;;;;;;;4.70;3.87;;;8.60;99.90;;;;;;4972645;28;20166;-72
2021/12/16 03:16:39;;;;;;;5.63;4.87;;;8.70;99.90;;;;;;4972421;28;20409;-72
2021/12/16 03:19:14;;;;;;;5.83;3.10;;;8.60;99.90;;;;;;4972800;28;20760;-71
2021/12/16 03:21:46;;;;;;;6.10;2.97;;;8.60;99.90;;;;;;4972633;28;20437;-72
2021/12/16 03:35:27;;;;;;;5.30;3.07;;;8.60;99.90;;;;;;4972082;28;20401;-71
2021/12/16 03:37:56;;;;;;;4.57;4.17;;;8.60;99.90;;;;;;4972192;28;20924;-70
2021/12/16 03:40:22;;;;;;;7.03;4.63;;;8.60;99.90;;;;;;4972547;28;20464;-70
2021/12/16 03:42:55;;;;;;;7.13;3.63;;;8.60;99.90;;;;;;4972270;28;20415;-70
2021/12/16 03:48:50;;;;;;;8.07;4.53;;;8.60;99.90;;;;;;4972196;28;20445;-70
2021/12/16 03:51:28;;;;;;;7.83;4.30;;;8.60;99.90;;;;;;4972067;28;20438;-70
2021/12/16 03:53:59;;;;;;;11.27;5.43;;;8.60;99.90;;;;;;4972082;28;20413;-71
2021/12/16 03:56:25;;;;;;;7.70;5.03;;;8.70;99.90;;;;;;4971825;28;20420;-71
2021/12/16 03:58:52;;;;;;;7.13;4.30;;;8.60;99.90;;;;;;4971748;28;20426;-71
2021/12/16 04:01:26;;;;;;;6.37;3.23;;;8.60;99.90;;;;;;4971660;28;20437;-70
2021/12/16 04:03:52;;;;;;;5.80;3.40;;;8.60;99.90;;;;;;4971685;28;20418;-69
2021/12/16 04:06:21;;;;;;;4.30;3.57;;;8.60;99.90;;;;;;4971349;28;20414;-69
2021/12/16 04:08:47;;;;;;;5.37;4.50;;;8.70;99.90;;;;;;4971671;28;20203;-69
2021/12/16 04:11:20;;;;;;;8.57;3.83;;;8.60;99.90;;;;;;4971492;28;20453;-69
2021/12/16 04:13:56;;;;;;;4.30;2.53;;;8.60;99.90;;;;;;4971730;28;20398;-70
2021/12/16 04:16:27;;;;;;;7.93;4.17;;;8.60;99.90;;;;;;4975095;28;20448;-70
2021/12/16 04:18:52;;;;;;;5.00;3.50;;;8.60;99.90;;;;;;4975404;28;20416;-70
2021/12/16 04:21:19;;;;;;;4.27;2.73;;;8.60;99.90;;;;;;4973988;28;20805;-70
2021/12/16 04:23:47;;;;;;;5.90;4.10;;;8.60;99.90;;;;;;4975516;28;20211;-70
2021/12/16 04:26:14;;;;;;;8.17;4.50;;;8.60;99.90;;;;;;4975164;28;20658;-69
2021/12/16 04:28:39;;;;;;;7.10;3.53;;;8.70;99.90;;;;;;4973946;28;20523;-69
2021/12/16 04:31:05;;;;;;;4.40;2.77;;;8.60;99.90;;;;;;4975129;28;20576;-70
2021/12/16 04:33:31;;;;;;;2.80;2.50;;;8.60;99.90;;;;;;4975074;28;20480;-71
2021/12/16 04:35:57;;;;;;;5.07;3.50;;;8.60;99.90;;;;;;4974722;28;20728;-69
2021/12/16 04:38:22;;;;;;;5.33;3.60;;;8.60;99.90;;;;;;4974959;28;20505;-72
2021/12/16 04:40:49;;;;;;;3.60;3.27;;;8.60;99.90;;;;;;4973298;28;20202;-70
2021/12/16 04:43:22;;;;;;;4.70;3.43;;;8.60;99.90;;;;;;4975127;28;20189;-70
2021/12/16 04:45:50;;;;;;;6.03;3.93;;;8.60;99.90;;;;;;4974687;28;20438;-69
2021/12/16 04:48:15;;;;;;;7.90;4.37;;;8.60;99.90;;;;;;4974870;28;20737;-70
2021/12/16 04:50:41;;;;;;;7.87;3.23;;;8.60;99.90;;;;;;4974755;28;20558;-70
2021/12/16 04:53:07;;;;;;;4.60;4.07;;;8.60;99.90;;;;;;4974840;28;20585;-70
2021/12/16 04:55:33;;;;;;;6.30;3.47;;;8.50;99.90;;;;;;4974977;28;20225;-72
2021/12/16 04:57:58;;;;;;;4.33;3.80;;;8.50;99.90;;;;;;4974583;28;20410;-70
2021/12/16 05:00:26;;;;;;;6.40;3.77;;;8.50;99.90;;;;;;4974515;28;20301;-70
2021/12/16 05:02:52;;;;;;;4.80;3.90;;;8.50;99.90;;;;;;4974692;28;20641;-70
2021/12/16 05:05:18;;;;;;;6.47;4.03;;;8.50;99.90;;;;;;4974467;28;20413;-70
2021/12/16 05:07:47;;;;;;;4.00;2.87;;;8.40;99.90;;;;;;4974352;28;20990;-70
2021/12/16 05:10:14;;;;;;;6.63;4.03;;;8.50;99.90;;;;;;4974471;28;20489;-70
2021/12/16 05:12:46;;;;;;;5.57;3.70;;;8.50;99.90;;;;;;4974583;28;20902;-70
2021/12/16 05:15:16;;;;;;;5.93;3.77;;;8.40;99.90;;;;;;4974235;28;21017;-69
2021/12/16 05:17:48;;;;;;;4.53;3.23;;;8.40;99.90;;;;;;4974064;28;20553;-70
2021/12/16 05:20:38;;;;;;;8.10;3.80;;;8.40;99.90;;;;;;4973974;28;20434;-70
2021/12/16 05:26:02;;;;;;;4.70;3.97;;;8.40;99.90;;;;;;4973955;28;20457;-71
2021/12/16 05:28:28;;;;;;;6.47;4.40;;;8.30;99.90;;;;;;4974226;28;20423;-71
2021/12/16 05:30:55;;;;;;;9.40;4.20;;;8.30;99.90;;;;;;4974115;28;20802;-72
2021/12/16 05:33:22;;;;;;;4.90;3.33;;;8.30;99.90;;;;;;4974428;28;20662;-71
2021/12/16 05:35:48;;;;;;;8.07;4.73;;;8.20;99.90;;;;;;4974211;28;20423;-72
2021/12/16 05:38:14;;;;;;;5.37;4.27;;;8.20;99.90;;;;;;4974347;28;20423;-72
2021/12/16 05:40:40;;;;;;;9.00;5.63;;;8.10;99.90;;;;;;4974391;28;20440;-72
2021/12/16 05:43:09;;;;;;;6.83;5.33;;;8.00;99.90;;;;;;4974223;28;20444;-71
2021/12/16 05:45:36;;;;;;;6.47;4.20;;;8.00;99.90;;;;;;4974119;28;20423;-71
2021/12/16 05:48:05;;;;;;;7.40;4.73;;;7.90;99.90;;;;;;4974091;28;20415;-71
2021/12/16 05:50:33;;;;;;;5.37;3.97;;;8.00;99.90;;;;;;4974138;28;20466;-71
2021/12/16 05:52:59;;;;;;;9.33;4.80;;;7.90;99.90;;;;;;4973953;28;20492;-71
2021/12/16 05:55:25;;;;;;;6.00;4.80;;;7.80;99.90;;;;;;4974444;28;20403;-71
2021/12/16 05:57:51;;;;;;;7.53;5.07;;;7.80;99.90;;;;;;4973810;28;20170;-72
2021/12/16 06:00:30;;;;;;;6.77;4.50;;;7.80;99.90;;;;;;4973794;28;20175;-72
2021/12/16 06:02:55;;;;;;;5.80;4.50;;;7.80;99.90;;;;;;4973858;28;20599;-71
2021/12/16 06:05:21;;;;;;;10.57;4.77;;;7.80;99.90;;;;;;4973923;28;20638;-71
2021/12/16 06:07:47;;;;;;;8.27;4.30;;;7.80;99.90;;;;;;4973739;28;20178;-70
2021/12/16 06:13:05;;;;;;;12.40;5.50;;;7.80;99.90;;;;;;4972142;28;20429;-70
2021/12/16 06:28:51;;;;;;;10.57;5.40;;;7.90;99.90;;;;;;4973061;28;20496;-73
2021/12/16 06:31:16;;;;;;;16.13;4.57;;;7.80;99.90;;;;;;4973210;28;20503;-70
2021/12/16 06:33:42;;;;;;;6.87;5.27;;;7.80;99.90;;;;;;4973157;28;20188;-71
2021/12/16 06:36:08;;;;;;;8.10;5.27;;;7.80;99.90;;;;;;4973151;28;20166;-70
2021/12/16 06:38:34;;;;;;;8.30;4.77;;;7.80;99.90;;;;;;4972037;28;20405;-70
2021/12/16 06:40:59;;;;;;;8.20;4.47;;;7.80;99.90;;;;;;4972873;28;20252;-70
2021/12/16 06:43:25;;;;;;;8.40;4.50;;;7.80;99.90;;;;;;4972676;28;20197;-70
2021/12/16 06:45:53;;;;;;;6.80;4.77;;;7.80;99.90;;;;;;4971443;28;20174;-70
2021/12/16 06:48:28;;;;;;;6.57;5.00;;;7.80;99.90;;;;;;4973279;28;20257;-71
2021/12/16 06:50:58;;;;;;;8.40;5.77;;;7.90;99.90;;;;;;4971951;28;20440;-70
2021/12/16 06:53:44;;;;;;;8.37;5.03;;;7.90;99.90;;;;;;4972692;28;20916;-71
2021/12/16 06:56:23;;;;;;;9.10;4.60;;;7.80;99.90;;;;;;4972689;28;20414;-71
2021/12/16 06:59:01;;;;;;;5.33;4.80;;;7.90;99.90;;;;;;4972600;28;20437;-69
2021/12/16 07:01:59;;;;;;;8.10;5.00;;;7.90;99.90;;;;;;4972495;28;20419;-70
2021/12/16 07:04:18;;;;;;;13.10;5.83;;;7.90;99.90;;;;;;4972289;28;20889;-70
2021/12/16 07:06:44;;;;;;;6.83;5.13;;;7.90;99.90;;;;;;4972696;28;20409;-70
2021/12/16 07:09:15;;;;;;;6.50;4.03;;;8.00;99.90;;;;;;4972601;28;20533;-69
2021/12/16 07:11:43;;;;;;;7.60;4.83;;;7.90;99.90;;;;;;4972352;28;20195;-71
2021/12/16 07:14:14;;;;;;;10.80;5.33;;;7.90;99.90;;;;;;4972094;28;20951;-70
2021/12/16 07:16:40;;;;;;;6.43;4.80;;;8.00;99.90;;;;;;4970771;28;20427;-70
2021/12/16 07:19:06;;;;;;;7.93;4.00;;;8.00;99.90;;;;;;4972222;28;20507;-70
2021/12/16 07:21:37;;;;;;;9.73;4.53;;;8.00;99.90;;;;;;4972403;28;20537;-70
2021/12/16 07:24:07;;;;;;;11.27;4.80;;;8.00;99.90;;;;;;4972718;28;20224;-70
2021/12/16 07:26:32;;;;;;;10.43;6.10;;;8.00;99.90;;;;;;4972048;28;20406;-69
2021/12/16 07:28:58;;;;;;;5.70;5.07;;;8.00;99.90;;;;;;4972130;28;20516;-69
2021/12/16 07:31:23;;;;;;;9.87;5.10;;;8.00;99.90;;;;;;4972065;28;20216;-69
2021/12/16 07:33:49;;;;;;;7.33;4.10;;;8.00;99.90;;;;;;4972865;28;20169;-71
2021/12/16 07:36:18;;;;;;;7.43;3.73;;;8.00;99.90;;;;;;4971886;28;20169;-70
2021/12/16 07:38:45;;;;;;;9.90;5.60;;;8.00;99.90;;;;;;4972381;28;20174;-70
2021/12/16 07:41:12;;;;;;;7.40;4.57;;;8.00;99.90;;;;;;4972357;28;20438;-71
2021/12/16 07:46:21;;;;;;;9.07;6.07;;;8.10;99.90;;;;;;4972502;28;20500;-70
2021/12/16 07:48:46;;;;;;;7.03;3.30;;;8.10;99.90;;;;;;4972457;28;20508;-71
2021/12/16 07:51:12;;;;;;;6.07;4.00;;;8.10;99.90;;;;;;4975923;28;20190;-70
2021/12/16 07:53:38;;;;;;;5.77;3.60;;;8.10;99.90;;;;;;4977417;28;20178;-70
2021/12/16 07:56:05;;;;;;;6.83;4.93;;;8.10;99.90;;;;;;4976805;28;20522;-73
2021/12/16 07:58:31;;;;;;;10.97;4.10;;;8.10;99.90;;;;;;4976677;28;20409;-71
2021/12/16 08:00:57;;;;;;;5.73;4.23;;;8.10;99.90;;;;;;4976330;28;20520;-72
2021/12/16 08:03:23;;;;;;;7.50;4.40;;;8.20;99.90;;;;;;4976731;28;20508;-73
2021/12/16 08:05:55;;;;;;;7.20;5.07;;;8.20;99.90;;;;;;4975784;28;20418;-70
2021/12/16 08:08:22;;;;;;;9.97;4.80;;;8.10;99.90;;;;;;4976050;28;20508;-69
2021/12/16 08:10:50;;;;;;;8.13;4.90;;;8.10;99.90;;;;;;4975776;28;20469;-69
2021/12/16 08:13:16;;;;;;;12.00;4.90;;;8.10;99.90;;;;;;4975801;28;20925;-69
2021/12/16 08:15:42;;;;;;;9.30;5.40;;;8.10;99.90;;;;;;4976151;28;20431;-69
2021/12/16 08:18:08;;;;;;;12.30;5.37;;;8.20;99.90;;;;;;4976352;28;20488;-70
2021/12/16 08:20:34;;;;;;;6.27;4.10;;;8.10;99.90;;;;;;4975934;28;20447;-70
2021/12/16 08:22:59;;;;;;;6.57;4.37;;;8.20;99.90;;;;;;4976084;28;20641;-70
2021/12/16 08:25:27;;;;;;;6.50;3.93;;;8.20;99.90;;;;;;4974440;28;20699;-71
2021/12/16 08:27:54;;;;;;;7.10;3.63;;;8.20;99.90;;;;;;4975731;28;20209;-71
2021/12/16 08:30:22;;;;;;;4.20;3.00;;;8.20;99.90;;;;;;4975598;28;20465;-70
2021/12/16 08:32:48;;;;;;;10.07;4.30;;;8.20;99.90;;;;;;4975746;28;20995;-71
2021/12/16 08:35:14;;;;;;;6.33;3.73;;;8.30;99.90;;;;;;4975534;28;20926;-73
2021/12/16 08:37:40;;;;;;;7.50;4.03;;;8.30;99.90;;;;;;4975719;28;20422;-69
2021/12/16 08:40:10;;;;;;;5.90;3.47;;;8.30;99.90;;;;;;4976383;28;20414;-73
2021/12/16 08:42:36;;;;;;;5.67;4.27;;;8.30;99.90;;;;;;4976319;28;20922;-72
2021/12/16 08:45:03;;;;;;;7.00;4.80;;;8.30;99.90;;;;;;4975582;28;20433;-70
2021/12/16 08:47:31;;;;;;;7.20;3.80;;;8.30;99.90;;;;;;4969524;28;20289;-70
2021/12/16 08:49:56;;;;;;;6.67;3.80;;;8.30;99.90;;;;;;4975272;28;20453;-70
2021/12/16 08:52:22;;;;;;;6.43;4.37;;;8.30;99.90;;;;;;4957457;28;20462;-70
2021/12/16 08:54:49;;;;;;;9.57;4.77;;;8.40;99.90;;;;;;4958241;28;20544;-72
2021/12/16 08:57:15;;;;;;;5.63;3.57;;;8.40;99.90;;;;;;4975656;28;20235;-71
2021/12/16 08:59:43;;;;;;;6.77;3.50;;;8.40;99.90;;;;;;4974455;28;20923;-71
2021/12/16 09:02:09;;;;;;;5.87;3.90;;;8.40;99.90;;;;;;4974199;28;20196;-71
2021/12/16 09:04:36;;;;;;;6.13;4.17;;;8.50;99.90;;;;;;4974240;28;20434;-72
2021/12/16 09:07:05;;;;;;;6.40;3.10;;;8.50;99.90;;;;;;4975970;28;20762;-70
2021/12/16 09:09:34;;;;;;;7.60;3.83;;;8.50;99.90;;;;;;4975542;28;20462;-72
2021/12/16 09:12:06;;;;;;;7.20;3.90;;;8.50;99.90;;;;;;4975099;28;20474;-70
2021/12/16 09:14:35;;;;;;;8.37;3.77;;;8.50;99.90;;;;;;4976089;28;20413;-71
2021/12/16 09:17:02;;;;;;;6.07;3.83;;;8.50;99.90;;;;;;4975051;28;20413;-70
2021/12/16 09:19:28;;;;;;;8.70;4.80;;;8.60;99.90;;;;;;4974708;28;20444;-71
2021/12/16 09:21:54;;;;;;;6.80;4.50;;;8.60;99.90;;;;;;4960289;28;20447;-71
2021/12/16 09:24:19;;;;;;;10.67;5.67;;;8.60;99.90;;;;;;4955399;28;20174;-70
2021/12/16 09:26:45;;;;;;;15.40;3.63;;;8.60;99.90;;;;;;4955413;28;20335;-71
2021/12/16 09:29:11;;;;;;;3.80;3.43;;;8.60;99.90;;;;;;4955415;28;20204;-71
2021/12/16 09:31:37;;;;;;;6.10;4.33;;;8.50;99.90;;;;;;4954842;28;20992;-70
2021/12/16 09:34:07;;;;;;;5.77;3.73;;;8.50;99.90;;;;;;4955175;29;20415;-71
2021/12/16 09:36:35;;;;;;;5.23;4.00;;;8.60;99.90;;;;;;4963072;28;20181;-71
2021/12/16 09:39:03;;;;;;;9.27;3.50;;;8.60;99.90;;;;;;4972924;28;20773;-71
2021/12/16 09:41:29;;;;;;;4.87;3.80;;;8.70;99.90;;;;;;4974297;28;20469;-70
2021/12/16 09:43:56;;;;;;;5.20;2.93;;;8.70;99.90;;;;;;4974261;28;20416;-70
2021/12/16 09:46:24;;;;;;;5.37;3.53;;;8.80;99.90;;;;;;4974365;28;20419;-70
2021/12/16 09:48:51;;;;;;;6.50;3.10;;;8.70;99.90;;;;;;4976450;28;20415;-69
2021/12/16 09:51:22;;;;;;;3.63;2.57;;;8.70;99.90;;;;;;4973776;28;20494;-69
2021/12/16 09:53:54;;;;;;;6.10;3.10;;;8.70;99.90;;;;;;4974324;28;20416;-70
2021/12/16 09:56:22;;;;;;;4.83;3.10;;;8.80;99.90;;;;;;4973317;28;20420;-69
2021/12/16 09:58:50;;;;;;;6.50;4.00;;;8.80;99.90;;;;;;4973851;28;20419;-70
2021/12/16 10:01:18;;;;;;;6.73;3.17;;;8.70;99.90;;;;;;4973797;28;20467;-71
2021/12/16 10:03:53;;;;;;;3.33;2.43;;;8.80;99.90;;;;;;4973693;28;21017;-70
2021/12/16 10:06:19;;;;;;;6.27;3.13;;;8.80;99.90;;;;;;4973742;28;20408;-70
2021/12/16 10:08:46;;;;;;;5.90;3.63;;;8.80;99.90;;;;;;4973764;28;20906;-70
2021/12/16 10:11:12;;;;;;;5.60;3.33;;;8.90;99.90;;;;;;4973744;28;20427;-69
2021/12/16 10:13:48;;;;;;;7.43;3.10;;;8.90;99.90;;;;;;4973102;28;20498;-70
2021/12/16 10:18:59;;;;;;;6.90;3.40;;;8.90;99.90;;;;;;4973658;28;20412;-69
2021/12/16 10:21:27;;;;;;;4.67;3.40;;;8.90;99.90;;;;;;4970295;28;20426;-70
2021/12/16 10:23:53;;;;;;;4.87;3.30;;;9.00;99.90;;;;;;4953938;29;20403;-70
2021/12/16 10:26:22;;;;;;;4.87;2.40;;;9.00;99.90;;;;;;4953776;29;20437;-71
2021/12/16 10:28:51;;;;;;;5.37;3.03;;;9.00;99.90;;;;;;4954420;28;20286;-70
2021/12/16 10:31:16;;;;;;;5.90;3.30;;;9.10;99.90;;;;;;4953901;28;20445;-70
2021/12/16 10:33:46;;;;;;;3.67;3.20;;;9.10;99.90;;;;;;4952504;29;20449;-71
2021/12/16 10:36:20;;;;;;;3.57;2.80;;;9.10;99.90;;;;;;4953981;29;20181;-70
2021/12/16 10:39:01;;;;;;;3.20;2.60;;;9.10;99.90;;;;;;4954145;29;20919;-71
2021/12/16 10:41:38;;;;;;;4.17;2.33;;;9.10;99.90;;;;;;4954035;28;20483;-69
2021/12/16 10:44:17;;;;;;;3.70;2.43;;;9.10;99.90;;;;;;4954155;28;20428;-69
2021/12/16 10:47:00;;;;;;;5.83;2.60;;;9.20;99.90;;;;;;4954239;29;20419;-70
2021/12/16 10:49:29;;;;;;;3.70;2.37;;;9.20;99.90;;;;;;4965526;28;20619;-71
2021/12/16 10:52:02;;;;;;;4.03;3.10;;;9.30;99.90;;;;;;4974718;28;20425;-70
2021/12/16 10:54:37;;;;;;;3.83;2.47;;;9.40;99.90;;;;;;4974509;28;20417;-70
2021/12/16 10:57:09;;;;;;;4.23;2.37;;;9.30;99.90;;;;;;4991276;28;20763;-70
2021/12/16 10:59:38;;;;;;;8.40;2.80;;;9.40;99.90;;;;;;4992340;28;20539;-70
2021/12/16 11:02:10;;;;;;;1.90;1.57;;;9.30;99.90;;;;;;4992186;28;20438;-71
2021/12/16 11:04:45;;;;;;;1.77;1.63;;;9.30;99.90;;;;;;4992888;28;20408;-71
2021/12/16 11:07:13;;;;;;;6.07;2.07;;;9.40;99.90;;;;;;4993630;28;20451;-72
2021/12/16 11:09:51;;;;;;;3.33;1.80;;;9.50;99.90;;;;;;4994765;28;20487;-70
2021/12/16 11:12:30;;;;;;;3.70;2.40;;;9.50;99.90;;;;;;4994773;28;20419;-71
2021/12/16 11:15:16;;;;;;;5.57;3.23;;;9.50;99.90;;;;;;4994614;28;20404;-71
2021/12/16 11:17:45;;;;;;;4.10;2.30;;;9.60;99.90;;;;;;4994696;28;20587;-71
2021/12/16 11:20:28;;;;;;;3.87;2.33;;;9.70;99.90;;;;;;4994611;28;20443;-70
2021/12/16 11:23:06;;;;;;;3.10;1.93;;;9.70;99.90;;;;;;4993079;28;20433;-71
2021/12/16 11:25:54;;;;;;;3.53;2.60;;;9.80;99.90;;;;;;4991437;28;20418;-72
2021/12/16 11:28:24;;;;;;;2.00;1.60;;;9.80;99.90;;;;;;4994618;28;20424;-73
2021/12/16 11:30:52;;;;;;;2.70;2.00;;;9.90;99.90;;;;;;4995744;28;20474;-73
2021/12/16 11:33:33;;;;;;;3.33;2.47;;;9.90;99.90;;;;;;4980677;28;20417;-72
2021/12/16 11:36:14;;;;;;;4.23;2.20;;;9.90;99.90;;;;;;4981635;28;20444;-73
2021/12/16 11:38:44;;;;;;;4.83;2.70;;;9.90;99.90;;;;;;4982594;28;20417;-74
2021/12/16 11:41:24;;;;;;;1.40;1.30;;;9.90;99.90;;;;;;4983366;28;20422;-73
2021/12/16 11:44:11;;;;;;;4.80;1.83;;;10.00;99.90;;;;;;4985441;28;20760;-73
2021/12/16 11:46:51;;;;;;;3.03;2.70;;;10.00;99.90;;;;;;4985218;28;20421;-72
2021/12/16 11:49:47;;;;;;;2.10;1.80;;;10.00;99.90;;;;;;4984394;28;20520;-70
2021/12/16 11:52:35;;;;;;;5.23;1.70;;;10.00;99.90;;;;;;4974829;28;20448;-73
2021/12/16 11:55:11;;;;;;;2.80;1.80;;;9.90;99.90;;;;;;4976590;28;20849;-72
2021/12/16 11:57:40;;;;;;;1.60;1.40;;;9.90;99.90;;;;;;4977544;28;20421;-73
2021/12/16 12:00:11;;;;;;;2.17;1.87;;;10.00;99.90;;;;;;4975827;28;20416;-73
2021/12/16 12:02:41;;;;;;;4.53;1.40;;;9.90;99.90;;;;;;4981231;28;20811;-72
2021/12/16 12:05:19;;;;;;;2.00;1.63;;;10.10;99.90;;;;;;4976413;28;20500;-72
2021/12/16 12:08:07;;;;;;;2.07;1.10;;;10.00;99.90;;;;;;4973385;28;20412;-73
2021/12/16 12:10:34;;;;;;;2.43;1.87;;;10.10;99.90;;;;;;4973845;28;20488;-73
2021/12/16 12:13:02;;;;;;;1.37;1.20;;;10.10;99.90;;;;;;4974427;28;20417;-72
2021/12/16 12:15:28;;;;;;;1.90;1.60;;;10.00;99.90;;;;;;4974776;28;20415;-72
2021/12/16 12:17:56;;;;;;;2.03;1.53;;;10.00;99.90;;;;;;4973858;28;20409;-73
2021/12/16 12:20:32;;;;;;;1.60;1.30;;;10.00;99.90;;;;;;4974849;28;20197;-73
2021/12/16 12:23:00;;;;;;;2.17;1.60;;;10.00;99.90;;;;;;4977060;28;20518;-73
2021/12/16 12:25:25;;;;;;;2.00;1.73;;;10.00;99.90;;;;;;4975607;28;20479;-72
2021/12/16 12:27:51;;;;;;;2.60;1.50;;;9.90;99.90;;;;;;4974431;28;20429;-73
2021/12/16 12:30:18;;;;;;;2.00;1.60;;;9.80;99.90;;;;;;4977068;28;20213;-73
2021/12/16 12:32:47;;;;;;;1.97;1.50;;;9.70;99.90;;;;;;4962899;28;20174;-70
2021/12/16 12:35:24;;;;;;;2.77;1.67;;;9.80;99.90;;;;;;4955741;28;20417;-71
2021/12/16 12:37:52;;;;;;;2.57;1.47;;;9.80;99.90;;;;;;4959283;28;20909;-72
2021/12/16 12:40:29;;;;;;;6.03;1.80;;;9.80;99.90;;;;;;4959275;28;20432;-71
2021/12/16 12:42:56;;;;;;;2.97;2.43;;;9.80;99.90;;;;;;4959481;29;20422;-72
2021/12/16 12:45:29;;;;;;;2.50;1.63;;;9.80;99.90;;;;;;4958654;29;20444;-71
2021/12/16 12:47:59;;;;;;;1.60;1.50;;;9.80;99.90;;;;;;4986699;28;20510;-71
2021/12/16 12:50:29;;;;;;;1.90;1.37;;;9.80;99.90;;;;;;4988250;28;20459;-72
2021/12/16 12:52:59;;;;;;;2.20;1.47;;;9.80;99.90;;;;;;4982177;28;20459;-72
2021/12/16 12:55:32;;;;;;;3.07;2.43;;;9.70;99.90;;;;;;4994920;28;20416;-71
2021/12/16 12:58:10;;;;;;;1.40;1.30;;;9.70;99.90;;;;;;5002035;28;20503;-72
2021/12/16 13:00:47;;;;;;;2.03;1.50;;;9.70;99.90;;;;;;4999782;28;20428;-72
2021/12/16 13:03:23;;;;;;;1.37;1.10;;;9.70;99.90;;;;;;5001547;28;20415;-73
2021/12/16 13:05:58;;;;;;;1.90;1.70;;;9.80;99.90;;;;;;4999692;28;20449;-72
2021/12/16 13:08:30;;;;;;;2.07;1.23;;;9.80;99.90;;;;;;4994575;28;20416;-74
2021/12/16 13:11:09;;;;;;;2.30;1.43;;;9.80;99.90;;;;;;4982020;28;20467;-72
2021/12/16 13:13:45;;;;;;;1.23;1.13;;;9.70;99.90;;;;;;4996375;28;20422;-74
2021/12/16 13:28:44;;;;;;;2.57;1.70;;;9.50;99.90;;;;;;4986687;28;20427;-72
2021/12/16 13:31:29;;;;;;;0.97;0.87;;;9.50;99.90;;;;;;4996083;28;20443;-72
2021/12/16 13:33:57;;;;;;;4.57;1.73;;;9.40;99.90;;;;;;4996214;28;20400;-72
2021/12/16 13:36:44;;;;;;;1.60;1.50;;;9.40;99.90;;;;;;4996608;28;20451;-71
2021/12/16 13:39:14;;;;;;;3.13;1.83;;;9.40;99.90;;;;;;4995334;28;20507;-71
2021/12/16 13:41:53;;;;;;;2.57;1.80;;;9.40;99.90;;;;;;4995976;28;20428;-73
2021/12/16 13:44:40;;;;;;;1.83;1.23;;;9.30;99.90;;;;;;4996154;28;20496;-73
2021/12/16 13:47:25;;;;;;;2.40;1.90;;;9.30;99.90;;;;;;4997002;28;20400;-73
2021/12/16 14:00:04;;;;;;;2.13;1.60;;;9.20;99.90;;;;;;4995914;28;20461;-72
2021/12/16 14:05:16;;;;;;;3.10;1.40;;;9.20;99.90;;;;;;4989829;28;20828;-72
2021/12/16 14:07:56;;;;;;;1.57;1.40;;;9.10;99.90;;;;;;4974994;28;20419;-74
2021/12/16 14:10:36;;;;;;;3.53;1.77;;;9.10;99.90;;;;;;4955172;28;20529;-73
2021/12/16 14:14:08;;;;;;;4.13;2.17;;;9.10;99.90;;;;;;4956675;28;20445;-73
2021/12/16 14:16:53;;;;;;;1.50;1.40;;;9.00;99.90;;;;;;4955182;29;20842;-72
2021/12/16 14:25:29;;;;;;;4.40;1.90;;;8.80;99.90;;;;;;4955376;29;20409;-72
2021/12/16 14:42:07;;;;;;;4.60;1.33;;;8.50;99.90;;;;;;4975232;28;20784;-73
2021/12/16 14:47:41;;;;;;;1.90;1.80;;;8.40;99.90;;;;;;4976769;28;20431;-73
2021/12/16 14:50:04;;;;;;;1.57;1.47;;;8.40;99.90;;;;;;4971708;28;20465;-73
2021/12/16 14:52:32;;;;;;;1.73;0.90;;;8.30;99.90;;;;;;4976042;28;20436;-73
2021/12/16 14:55:04;;;;;;;1.50;1.27;;;8.30;99.90;;;;;;4980673;28;20406;-73
2021/12/16 14:57:40;;;;;;;2.33;1.70;;;8.10;99.90;;;;;;4995220;28;20943;-74
2021/12/16 15:00:27;;;;;;;0.97;0.87;;;8.10;99.90;;;;;;4993704;28;20411;-73
2021/12/16 15:03:08;;;;;;;1.10;1.00;;;8.10;99.90;;;;;;4994428;28;20896;-74
2021/12/16 15:05:44;;;;;;;2.30;1.60;;;8.00;99.90;;;;;;4994661;28;20424;-73
2021/12/16 15:08:22;;;;;;;1.20;1.10;;;7.90;99.90;;;;;;4995195;28;20429;-72
2021/12/16 15:10:48;;;;;;;1.90;1.43;;;7.90;99.90;;;;;;4995162;28;20537;-74
2021/12/16 15:13:27;;;;;;;1.87;1.17;;;8.00;99.90;;;;;;4995093;28;20422;-74
2021/12/16 15:33:54;;;;;;;2.30;2.10;;;7.80;99.90;;;;;;4994076;28;20459;-72
2021/12/16 15:35:52;;;;;;;2.13;1.50;;;7.70;99.90;;;;;;4993590;28;20883;-72
2021/12/16 15:43:04;;;;;;;2.70;1.47;;;7.60;99.90;;;;;;4993640;28;20439;-71
2021/12/16 15:45:40;;;;;;;2.23;1.70;;;7.50;99.90;;;;;;4989460;28;20416;-71
2021/12/16 15:48:10;;;;;;;4.10;1.50;;;7.50;99.90;;;;;;4973301;28;20408;-72
2021/12/16 15:50:40;;;;;;;3.67;1.90;;;7.50;99.90;;;;;;4973396;28;20452;-72
2021/12/16 15:53:10;;;;;;;7.00;2.00;;;7.50;99.90;;;;;;4974155;28;20401;-73
2021/12/16 15:55:46;;;;;;;2.17;1.40;;;7.40;99.90;;;;;;4984955;28;20415;-73
2021/12/16 15:58:21;;;;;;;1.80;1.50;;;7.40;99.90;;;;;;4996286;28;20408;-73
2021/12/16 16:00:51;;;;;;;1.67;1.47;;;7.20;99.90;;;;;;4993515;28;20428;-72
2021/12/16 16:03:18;;;;;;;6.30;2.03;;;7.20;99.90;;;;;;4993954;28;20412;-73
2021/12/16 16:05:49;;;;;;;2.00;1.80;;;7.20;99.90;;;;;;4994133;28;20415;-73
2021/12/16 16:08:18;;;;;;;2.00;1.73;;;7.30;99.90;;;;;;4993523;28;20412;-72
2021/12/16 16:10:46;;;;;;;2.43;1.63;;;7.30;99.90;;;;;;4993913;28;20518;-73
2021/12/16 16:13:23;;;;;;;3.43;1.80;;;7.10;99.90;;;;;;4997228;28;20866;-71
2021/12/16 16:15:51;;;;;;;1.33;1.10;;;7.20;99.90;;;;;;4997241;28;20810;-71
2021/12/16 16:18:34;;;;;;;3.10;1.90;;;7.20;99.90;;;;;;4997269;28;20740;-71
2021/12/16 16:21:19;;;;;;;2.30;2.07;;;7.20;99.90;;;;;;4997198;28;20424;-72
2021/12/16 16:23:51;;;;;;;1.90;1.73;;;7.20;99.90;;;;;;4997919;28;20758;-72
2021/12/16 16:26:17;;;;;;;3.80;2.40;;;7.20;99.90;;;;;;4998080;28;20400;-74
2021/12/16 16:28:46;;;;;;;2.37;1.80;;;7.00;99.90;;;;;;4997425;28;20418;-72
2021/12/16 16:31:22;;;;;;;1.60;1.40;;;7.00;99.90;;;;;;4997174;28;20224;-72
2021/12/16 16:33:49;;;;;;;1.73;1.13;;;7.00;99.90;;;;;;4997240;28;20526;-72
2021/12/16 16:36:17;;;;;;;2.23;2.13;;;7.00;99.90;;;;;;4997145;28;20813;-70